sensor_id;sensor_type;location;lat;lon;timestamp;pressure;altitude;pressure_sealevel;temperature;humidity
73817;BME280;62146;53.232;-1.304;2022-10-17T00:01:27;99525.16;;;14.53;76.36
73817;BME280;62146;53.232;-1.304;2022-10-17T00:03:54;99523.00;;;14.55;76.17
73817;BME280;62146;53.232;-1.304;2022-10-17T00:06:20;99523.50;;;14.57;77.54
73817;BME280;62146;53.232;-1.304;2022-10-17T00:08:47;99515.72;;;14.61;77.47
73817;BME280;62146;53.232;-1.304;2022-10-17T00:11:17;99518.13;;;14.62;77.74
73817;BME280;62146;53.232;-1.304;2022-10-17T00:13:45;99509.53;;;14.65;77.12
73817;BME280;62146;53.232;-1.304;2022-10-17T00:16:13;99512.19;;;14.65;77.13
73817;BME280;62146;53.232;-1.304;2022-10-17T00:18:39;99510.03;;;14.67;77.02
73817;BME280;62146;53.232;-1.304;2022-10-17T00:21:14;99502.53;;;14.69;77.23
73817;BME280;62146;53.232;-1.304;2022-10-17T00:23:40;99496.13;;;14.70;78.13
73817;BME280;62146;53.232;-1.304;2022-10-17T00:26:07;99509.97;;;14.72;78.70
73817;BME280;62146;53.232;-1.304;2022-10-17T00:28:34;99508.09;;;14.73;77.50
73817;BME280;62146;53.232;-1.304;2022-10-17T00:31:04;99515.84;;;14.74;77.70
73817;BME280;62146;53.232;-1.304;2022-10-17T00:33:31;99522.75;;;14.75;78.39
73817;BME280;62146;53.232;-1.304;2022-10-17T00:36:18;99521.97;;;14.74;77.39
73817;BME280;62146;53.232;-1.304;2022-10-17T00:38:47;99516.06;;;14.77;77.78
73817;BME280;62146;53.232;-1.304;2022-10-17T00:41:16;99503.50;;;14.78;78.08
73817;BME280;62146;53.232;-1.304;2022-10-17T00:43:53;99501.63;;;14.78;77.91
73817;BME280;62146;53.232;-1.304;2022-10-17T00:46:22;99491.72;;;14.79;78.29
73817;BME280;62146;53.232;-1.304;2022-10-17T00:48:52;99499.44;;;14.80;79.31
73817;BME280;62146;53.232;-1.304;2022-10-17T00:51:24;99515.97;;;14.82;78.93
73817;BME280;62146;53.232;-1.304;2022-10-17T00:53:52;99512.22;;;14.83;79.12
73817;BME280;62146;53.232;-1.304;2022-10-17T00:56:19;99510.34;;;14.84;79.12
73817;BME280;62146;53.232;-1.304;2022-10-17T00:58:46;99499.38;;;14.85;79.04
73817;BME280;62146;53.232;-1.304;2022-10-17T01:01:13;99499.38;;;14.85;78.75
73817;BME280;62146;53.232;-1.304;2022-10-17T01:03:40;99493.22;;;14.85;78.37
73817;BME280;62146;53.232;-1.304;2022-10-17T01:06:07;99497.50;;;14.86;78.24
73817;BME280;62146;53.232;-1.304;2022-10-17T01:08:33;99503.63;;;14.86;78.53
73817;BME280;62146;53.232;-1.304;2022-10-17T01:13:58;99501.75;;;14.87;79.05
73817;BME280;62146;53.232;-1.304;2022-10-17T01:16:38;99499.09;;;14.87;78.41
73817;BME280;62146;53.232;-1.304;2022-10-17T01:19:34;99492.66;;;14.88;78.89
73817;BME280;62146;53.232;-1.304;2022-10-17T01:27:56;99475.28;;;14.90;79.21
73817;BME280;62146;53.232;-1.304;2022-10-17T01:32:58;99469.63;;;14.92;78.26
73817;BME280;62146;53.232;-1.304;2022-10-17T01:38:10;99455.22;;;14.93;78.71
73817;BME280;62146;53.232;-1.304;2022-10-17T01:40:46;99472.03;;;14.93;79.14
73817;BME280;62146;53.232;-1.304;2022-10-17T01:43:30;99519.00;;;14.94;79.55
73817;BME280;62146;53.232;-1.304;2022-10-17T01:46:12;99538.50;;;14.95;78.22
73817;BME280;62146;53.232;-1.304;2022-10-17T01:48:44;99536.91;;;14.94;78.70
73817;BME280;62146;53.232;-1.304;2022-10-17T01:51:19;99523.25;;;14.95;78.52
73817;BME280;62146;53.232;-1.304;2022-10-17T01:53:56;99528.34;;;14.97;79.13
73817;BME280;62146;53.232;-1.304;2022-10-17T01:56:27;99523.00;;;14.97;78.90
73817;BME280;62146;53.232;-1.304;2022-10-17T01:59:00;99523.47;;;14.99;78.53
73817;BME280;62146;53.232;-1.304;2022-10-17T02:01:29;99526.16;;;14.99;78.91
73817;BME280;62146;53.232;-1.304;2022-10-17T02:03:57;99534.94;;;14.99;78.85
73817;BME280;62146;53.232;-1.304;2022-10-17T02:06:24;99538.41;;;14.99;79.07
73817;BME280;62146;53.232;-1.304;2022-10-17T02:08:51;99550.41;;;15.02;79.37
73817;BME280;62146;53.232;-1.304;2022-10-17T02:11:22;99538.94;;;15.01;79.07
73817;BME280;62146;53.232;-1.304;2022-10-17T02:16:38;99539.19;;;15.05;80.00
73817;BME280;62146;53.232;-1.304;2022-10-17T02:29:45;99544.16;;;15.11;80.41
73817;BME280;62146;53.232;-1.304;2022-10-17T02:32:20;99546.03;;;15.11;80.56
73817;BME280;62146;53.232;-1.304;2022-10-17T02:34:51;99555.66;;;15.12;79.72
73817;BME280;62146;53.232;-1.304;2022-10-17T02:37:24;99539.91;;;15.10;80.06
73817;BME280;62146;53.232;-1.304;2022-10-17T02:39:54;99544.16;;;15.11;79.89
73817;BME280;62146;53.232;-1.304;2022-10-17T02:42:23;99555.06;;;15.15;80.96
73817;BME280;62146;53.232;-1.304;2022-10-17T02:44:51;99548.66;;;15.16;80.88
73817;BME280;62146;53.232;-1.304;2022-10-17T02:47:24;99540.34;;;15.17;80.63
73817;BME280;62146;53.232;-1.304;2022-10-17T02:49:55;99547.25;;;15.18;80.94
73817;BME280;62146;53.232;-1.304;2022-10-17T02:52:49;99555.28;;;15.18;80.69
73817;BME280;62146;53.232;-1.304;2022-10-17T02:55:31;99563.50;;;15.22;80.65
73817;BME280;62146;53.232;-1.304;2022-10-17T02:58:03;99554.69;;;15.21;80.83
73817;BME280;62146;53.232;-1.304;2022-10-17T03:00:34;99560.03;;;15.21;80.94
73817;BME280;62146;53.232;-1.304;2022-10-17T03:03:00;99566.19;;;15.22;80.97
73817;BME280;62146;53.232;-1.304;2022-10-17T03:05:28;99569.38;;;15.24;81.31
73817;BME280;62146;53.232;-1.304;2022-10-17T03:07:55;99583.22;;;15.26;81.20
73817;BME280;62146;53.232;-1.304;2022-10-17T03:10:22;99582.13;;;15.27;81.50
73817;BME280;62146;53.232;-1.304;2022-10-17T03:12:48;99589.06;;;15.27;81.58
73817;BME280;62146;53.232;-1.304;2022-10-17T03:15:15;99604.03;;;15.28;81.20
73817;BME280;62146;53.232;-1.304;2022-10-17T03:17:41;99613.91;;;15.28;81.15
73817;BME280;62146;53.232;-1.304;2022-10-17T03:20:08;99602.13;;;15.29;81.38
73817;BME280;62146;53.232;-1.304;2022-10-17T03:22:35;99598.69;;;15.28;81.20
73817;BME280;62146;53.232;-1.304;2022-10-17T03:25:01;99600.25;;;15.29;81.51
73817;BME280;62146;53.232;-1.304;2022-10-17T03:27:28;99598.38;;;15.30;80.99
73817;BME280;62146;53.232;-1.304;2022-10-17T03:29:55;99607.47;;;15.29;80.78
73817;BME280;62146;53.232;-1.304;2022-10-17T03:32:21;99596.31;;;15.27;80.70
73817;BME280;62146;53.232;-1.304;2022-10-17T03:34:48;99600.03;;;15.26;80.27
73817;BME280;62146;53.232;-1.304;2022-10-17T03:37:14;99601.13;;;15.25;80.24
73817;BME280;62146;53.232;-1.304;2022-10-17T03:39:41;99596.56;;;15.26;80.66
73817;BME280;62146;53.232;-1.304;2022-10-17T03:42:07;99590.44;;;15.25;81.10
73817;BME280;62146;53.232;-1.304;2022-10-17T03:44:34;99592.59;;;15.23;80.47
73817;BME280;62146;53.232;-1.304;2022-10-17T03:47:00;99580.31;;;15.22;80.52
73817;BME280;62146;53.232;-1.304;2022-10-17T03:49:27;99571.81;;;15.20;80.26
73817;BME280;62146;53.232;-1.304;2022-10-17T03:51:53;99564.88;;;15.19;81.96
73817;BME280;62146;53.232;-1.304;2022-10-17T03:54:20;99573.97;;;15.18;82.67
73817;BME280;62146;53.232;-1.304;2022-10-17T03:56:46;99602.88;;;15.16;81.52
73817;BME280;62146;53.232;-1.304;2022-10-17T03:59:14;99612.22;;;15.14;82.61
73817;BME280;62146;53.232;-1.304;2022-10-17T04:01:41;99618.94;;;15.11;83.48
73817;BME280;62146;53.232;-1.304;2022-10-17T04:04:08;99618.75;;;15.08;82.43
73817;BME280;62146;53.232;-1.304;2022-10-17T04:06:36;99624.66;;;15.05;82.74
73817;BME280;62146;53.232;-1.304;2022-10-17T04:09:03;99621.16;;;15.04;82.38
73817;BME280;62146;53.232;-1.304;2022-10-17T04:11:30;99616.38;;;15.01;83.46
73817;BME280;62146;53.232;-1.304;2022-10-17T04:13:57;99620.41;;;14.99;82.83
73817;BME280;62146;53.232;-1.304;2022-10-17T04:16:27;99615.84;;;14.99;82.99
73817;BME280;62146;53.232;-1.304;2022-10-17T04:18:55;99618.81;;;14.98;83.26
73817;BME280;62146;53.232;-1.304;2022-10-17T04:21:23;99617.25;;;14.97;83.66
73817;BME280;62146;53.232;-1.304;2022-10-17T04:23:57;99623.38;;;14.98;82.80
73817;BME280;62146;53.232;-1.304;2022-10-17T04:26:25;99627.13;;;14.97;82.66
73817;BME280;62146;53.232;-1.304;2022-10-17T04:28:52;99627.13;;;14.97;82.53
73817;BME280;62146;53.232;-1.304;2022-10-17T04:31:18;99621.78;;;14.97;83.62
73817;BME280;62146;53.232;-1.304;2022-10-17T04:33:47;99617.81;;;14.94;83.29
73817;BME280;62146;53.232;-1.304;2022-10-17T04:36:15;99617.28;;;14.92;83.09
73817;BME280;62146;53.232;-1.304;2022-10-17T04:38:43;99617.59;;;14.91;83.36
73817;BME280;62146;53.232;-1.304;2022-10-17T04:41:12;99622.41;;;14.89;83.13
73817;BME280;62146;53.232;-1.304;2022-10-17T04:43:39;99627.25;;;14.87;82.86
73817;BME280;62146;53.232;-1.304;2022-10-17T04:46:08;99634.72;;;14.85;83.20
73817;BME280;62146;53.232;-1.304;2022-10-17T04:48:36;99639.56;;;14.83;82.53
73817;BME280;62146;53.232;-1.304;2022-10-17T04:51:11;99638.25;;;14.80;82.93
73817;BME280;62146;53.232;-1.304;2022-10-17T04:53:39;99645.78;;;14.78;82.59
73817;BME280;62146;53.232;-1.304;2022-10-17T04:56:18;99647.13;;;14.76;81.96
73817;BME280;62146;53.232;-1.304;2022-10-17T04:58:45;99648.22;;;14.75;82.29
73817;BME280;62146;53.232;-1.304;2022-10-17T05:01:14;99661.81;;;14.73;82.57
73817;BME280;62146;53.232;-1.304;2022-10-17T05:03:42;99664.00;;;14.72;82.76
73817;BME280;62146;53.232;-1.304;2022-10-17T05:06:17;99668.81;;;14.70;82.36
73817;BME280;62146;53.232;-1.304;2022-10-17T05:08:44;99660.31;;;14.68;82.44
73817;BME280;62146;53.232;-1.304;2022-10-17T05:11:19;99665.66;;;14.68;82.06
73817;BME280;62146;53.232;-1.304;2022-10-17T05:13:51;99676.63;;;14.66;81.85
73817;BME280;62146;53.232;-1.304;2022-10-17T05:16:18;99680.63;;;14.64;81.83
73817;BME280;62146;53.232;-1.304;2022-10-17T05:18:47;99683.59;;;14.62;82.13
73817;BME280;62146;53.232;-1.304;2022-10-17T05:21:19;99684.38;;;14.63;82.43
73817;BME280;62146;53.232;-1.304;2022-10-17T05:23:46;99682.78;;;14.62;81.36
73817;BME280;62146;53.232;-1.304;2022-10-17T05:26:12;99693.22;;;14.58;82.34
73817;BME280;62146;53.232;-1.304;2022-10-17T05:28:39;99703.09;;;14.58;82.13
73817;BME280;62146;53.232;-1.304;2022-10-17T05:31:08;99708.72;;;14.56;81.92
73817;BME280;62146;53.232;-1.304;2022-10-17T05:33:35;99702.06;;;14.54;82.20
73817;BME280;62146;53.232;-1.304;2022-10-17T05:36:02;99713.53;;;14.54;81.95
73817;BME280;62146;53.232;-1.304;2022-10-17T05:38:29;99722.63;;;14.53;81.91
73817;BME280;62146;53.232;-1.304;2022-10-17T05:40:57;99722.38;;;14.50;82.06
73817;BME280;62146;53.232;-1.304;2022-10-17T05:43:24;99728.53;;;14.50;81.96
73817;BME280;62146;53.232;-1.304;2022-10-17T05:45:51;99731.47;;;14.49;81.96
73817;BME280;62146;53.232;-1.304;2022-10-17T05:48:17;99739.78;;;14.47;82.07
73817;BME280;62146;53.232;-1.304;2022-10-17T05:50:44;99747.25;;;14.46;81.49
73817;BME280;62146;53.232;-1.304;2022-10-17T05:53:11;99757.94;;;14.46;81.75
73817;BME280;62146;53.232;-1.304;2022-10-17T05:55:37;99768.59;;;14.46;81.58
73817;BME280;62146;53.232;-1.304;2022-10-17T05:58:04;99767.00;;;14.45;81.65
73817;BME280;62146;53.232;-1.304;2022-10-17T06:00:30;99770.22;;;14.42;81.47
73817;BME280;62146;53.232;-1.304;2022-10-17T06:02:57;99783.56;;;14.42;81.40
73817;BME280;62146;53.232;-1.304;2022-10-17T06:05:23;99783.88;;;14.40;81.32
73817;BME280;62146;53.232;-1.304;2022-10-17T06:07:50;99799.06;;;14.40;81.73
73817;BME280;62146;53.232;-1.304;2022-10-17T06:10:23;99794.28;;;14.37;81.62
73817;BME280;62146;53.232;-1.304;2022-10-17T06:12:49;99803.09;;;14.37;81.53
73817;BME280;62146;53.232;-1.304;2022-10-17T06:15:16;99804.44;;;14.35;81.49
73817;BME280;62146;53.232;-1.304;2022-10-17T06:17:43;99799.38;;;14.33;81.70
73817;BME280;62146;53.232;-1.304;2022-10-17T06:20:09;99809.25;;;14.33;81.29
73817;BME280;62146;53.232;-1.304;2022-10-17T06:22:36;99819.41;;;14.31;81.31
73817;BME280;62146;53.232;-1.304;2022-10-17T06:25:02;99833.03;;;14.29;81.17
73817;BME280;62146;53.232;-1.304;2022-10-17T06:27:29;99837.03;;;14.27;81.09
73817;BME280;62146;53.232;-1.304;2022-10-17T06:29:56;99850.09;;;14.28;81.21
73817;BME280;62146;53.232;-1.304;2022-10-17T06:32:22;99854.13;;;14.26;81.51
73817;BME280;62146;53.232;-1.304;2022-10-17T06:34:49;99850.13;;;14.23;81.58
73817;BME280;62146;53.232;-1.304;2022-10-17T06:37:15;99860.00;;;14.23;81.17
73817;BME280;62146;53.232;-1.304;2022-10-17T06:39:42;99868.00;;;14.23;81.61
73817;BME280;62146;53.232;-1.304;2022-10-17T06:42:08;99868.53;;;14.20;81.08
73817;BME280;62146;53.232;-1.304;2022-10-17T06:44:35;99874.16;;;14.19;80.83
73817;BME280;62146;53.232;-1.304;2022-10-17T06:47:01;99877.63;;;14.19;81.28
73817;BME280;62146;53.232;-1.304;2022-10-17T06:49:28;99885.91;;;14.18;81.13
73817;BME280;62146;53.232;-1.304;2022-10-17T06:51:55;99896.84;;;14.16;81.22
73817;BME280;62146;53.232;-1.304;2022-10-17T06:54:21;99894.16;;;14.16;81.15
73817;BME280;62146;53.232;-1.304;2022-10-17T06:56:48;99903.25;;;14.15;80.98
73817;BME280;62146;53.232;-1.304;2022-10-17T06:59:15;99900.31;;;14.12;81.13
73817;BME280;62146;53.232;-1.304;2022-10-17T07:01:41;99905.16;;;14.10;81.57
73817;BME280;62146;53.232;-1.304;2022-10-17T07:04:12;99913.69;;;14.07;80.83
73817;BME280;62146;53.232;-1.304;2022-10-17T07:06:39;99919.81;;;14.07;81.14
73817;BME280;62146;53.232;-1.304;2022-10-17T07:09:06;99924.34;;;14.07;81.12
73817;BME280;62146;53.232;-1.304;2022-10-17T07:11:33;99929.69;;;14.07;81.24
73817;BME280;62146;53.232;-1.304;2022-10-17T07:14:01;99936.63;;;14.08;81.43
73817;BME280;62146;53.232;-1.304;2022-10-17T07:16:27;99940.66;;;14.05;81.28
73817;BME280;62146;53.232;-1.304;2022-10-17T07:18:54;99947.81;;;14.05;81.37
73817;BME280;62146;53.232;-1.304;2022-10-17T07:21:21;99947.56;;;14.06;81.57
73817;BME280;62146;53.232;-1.304;2022-10-17T07:23:48;99953.44;;;14.03;81.48
73817;BME280;62146;53.232;-1.304;2022-10-17T07:26:15;99959.56;;;14.04;81.61
73817;BME280;62146;53.232;-1.304;2022-10-17T07:28:43;99963.31;;;14.03;81.70
73817;BME280;62146;53.232;-1.304;2022-10-17T07:31:16;99963.59;;;14.01;81.72
73817;BME280;62146;53.232;-1.304;2022-10-17T07:33:44;99972.38;;;14.02;81.82
73817;BME280;62146;53.232;-1.304;2022-10-17T07:36:12;99974.75;;;14.03;81.86
73817;BME280;62146;53.232;-1.304;2022-10-17T07:38:39;99987.03;;;14.04;81.99
73817;BME280;62146;53.232;-1.304;2022-10-17T07:41:07;99989.44;;;14.06;81.88
73817;BME280;62146;53.232;-1.304;2022-10-17T07:43:34;99988.88;;;14.09;81.96
73817;BME280;62146;53.232;-1.304;2022-10-17T07:46:03;100000.09;;;14.11;81.96
73817;BME280;62146;53.232;-1.304;2022-10-17T07:48:30;100010.22;;;14.14;81.15
73817;BME280;62146;53.232;-1.304;2022-10-17T07:51:01;100009.69;;;14.17;81.54
73817;BME280;62146;53.232;-1.304;2022-10-17T07:53:27;100011.25;;;14.18;81.75
73817;BME280;62146;53.232;-1.304;2022-10-17T07:55:54;100015.78;;;14.22;81.96
73817;BME280;62146;53.232;-1.304;2022-10-17T07:58:20;100022.69;;;14.23;81.79
73817;BME280;62146;53.232;-1.304;2022-10-17T08:00:47;100036.31;;;14.26;82.64
73817;BME280;62146;53.232;-1.304;2022-10-17T08:03:14;100038.44;;;14.29;82.18
73817;BME280;62146;53.232;-1.304;2022-10-17T08:05:41;100036.28;;;14.31;82.36
73817;BME280;62146;53.232;-1.304;2022-10-17T08:08:07;100030.16;;;14.31;82.45
73817;BME280;62146;53.232;-1.304;2022-10-17T08:10:34;100045.63;;;14.34;82.75
73817;BME280;62146;53.232;-1.304;2022-10-17T08:13:00;100040.81;;;14.36;82.86
73817;BME280;62146;53.232;-1.304;2022-10-17T08:15:27;100053.06;;;14.42;82.53
73817;BME280;62146;53.232;-1.304;2022-10-17T08:17:57;100062.91;;;14.46;82.50
73817;BME280;62146;53.232;-1.304;2022-10-17T08:20:24;100056.75;;;14.50;82.79
73817;BME280;62146;53.232;-1.304;2022-10-17T08:22:51;100066.84;;;14.58;83.12
73817;BME280;62146;53.232;-1.304;2022-10-17T08:25:19;100066.31;;;14.61;83.02
73817;BME280;62146;53.232;-1.304;2022-10-17T08:27:45;100064.19;;;14.63;82.69
73817;BME280;62146;53.232;-1.304;2022-10-17T08:30:12;100064.19;;;14.63;82.33
73817;BME280;62146;53.232;-1.304;2022-10-17T08:32:39;100076.75;;;14.63;82.64
73817;BME280;62146;53.232;-1.304;2022-10-17T08:35:06;100072.44;;;14.62;82.66
73817;BME280;62146;53.232;-1.304;2022-10-17T08:37:33;100074.31;;;14.61;82.72
73817;BME280;62146;53.232;-1.304;2022-10-17T08:40:00;100073.81;;;14.59;82.47
73817;BME280;62146;53.232;-1.304;2022-10-17T08:42:51;100076.22;;;14.56;82.67
73817;BME280;62146;53.232;-1.304;2022-10-17T08:45:28;100081.03;;;14.54;82.38
73817;BME280;62146;53.232;-1.304;2022-10-17T08:48:00;100084.78;;;14.53;82.58
73817;BME280;62146;53.232;-1.304;2022-10-17T08:50:29;100084.50;;;14.49;82.94
73817;BME280;62146;53.232;-1.304;2022-10-17T08:53:02;100092.78;;;14.53;82.26
73817;BME280;62146;53.232;-1.304;2022-10-17T08:55:55;100096.50;;;14.57;82.27
73817;BME280;62146;53.232;-1.304;2022-10-17T08:58:27;100101.56;;;14.63;82.47
73817;BME280;62146;53.232;-1.304;2022-10-17T09:06:37;100121.16;;;15.06;84.39
73817;BME280;62146;53.232;-1.304;2022-10-17T09:09:30;100124.00;;;15.25;84.59
73817;BME280;62146;53.232;-1.304;2022-10-17T09:12:14;100125.22;;;15.42;85.96
73817;BME280;62146;53.232;-1.304;2022-10-17T09:18:10;100141.25;;;15.84;87.36
73817;BME280;62146;53.232;-1.304;2022-10-17T09:20:46;100140.53;;;16.02;88.03
73817;BME280;62146;53.232;-1.304;2022-10-17T09:23:23;100146.81;;;16.21;88.42
73817;BME280;62146;53.232;-1.304;2022-10-17T09:25:55;100153.06;;;16.39;89.46
73817;BME280;62146;53.232;-1.304;2022-10-17T09:28:32;100170.31;;;16.57;89.78
73817;BME280;62146;53.232;-1.304;2022-10-17T09:31:06;100163.72;;;16.72;90.07
73817;BME280;62146;53.232;-1.304;2022-10-17T09:33:41;100181.22;;;16.88;90.43
73817;BME280;62146;53.232;-1.304;2022-10-17T09:36:31;100179.66;;;17.05;91.12
73817;BME280;62146;53.232;-1.304;2022-10-17T09:39:01;100187.53;;;17.20;91.02
73817;BME280;62146;53.232;-1.304;2022-10-17T09:41:47;100199.41;;;17.37;91.60
73817;BME280;62146;53.232;-1.304;2022-10-17T09:44:19;100201.88;;;17.52;91.66
73817;BME280;62146;53.232;-1.304;2022-10-17T09:49:35;100206.00;;;17.81;91.84
73817;BME280;62146;53.232;-1.304;2022-10-17T09:52:05;100209.34;;;17.91;91.99
73817;BME280;62146;53.232;-1.304;2022-10-17T09:57:14;100213.06;;;18.13;92.05
73817;BME280;62146;53.232;-1.304;2022-10-17T09:59:45;100232.69;;;18.27;92.13
73817;BME280;62146;53.232;-1.304;2022-10-17T10:02:16;100233.34;;;18.37;91.55
73817;BME280;62146;53.232;-1.304;2022-10-17T10:07:38;100245.53;;;18.61;91.90
73817;BME280;62146;53.232;-1.304;2022-10-17T10:10:07;100251.53;;;18.72;91.42
73817;BME280;62146;53.232;-1.304;2022-10-17T10:13:19;100249.19;;;18.83;91.53
73817;BME280;62146;53.232;-1.304;2022-10-17T10:15:47;100254.63;;;18.97;91.33
73817;BME280;62146;53.232;-1.304;2022-10-17T10:21:12;100252.25;;;19.22;90.72
73817;BME280;62146;53.232;-1.304;2022-10-17T10:23:44;100264.41;;;19.32;90.53
73817;BME280;62146;53.232;-1.304;2022-10-17T10:26:21;100266.59;;;19.44;90.05
73817;BME280;62146;53.232;-1.304;2022-10-17T10:28:54;100277.94;;;19.54;90.03
73817;BME280;62146;53.232;-1.304;2022-10-17T10:31:37;100278.25;;;19.66;89.54
73817;BME280;62146;53.232;-1.304;2022-10-17T10:34:27;100271.59;;;19.77;89.13
73817;BME280;62146;53.232;-1.304;2022-10-17T10:37:14;100283.41;;;19.89;88.86
73817;BME280;62146;53.232;-1.304;2022-10-17T10:39:51;100287.16;;;20.01;88.73
73817;BME280;62146;53.232;-1.304;2022-10-17T10:42:35;100298.22;;;20.13;88.33
73817;BME280;62146;53.232;-1.304;2022-10-17T10:45:17;100288.81;;;20.24;88.02
73817;BME280;62146;53.232;-1.304;2022-10-17T10:48:34;100297.47;;;20.34;88.15
73817;BME280;62146;53.232;-1.304;2022-10-17T10:51:08;100307.97;;;20.44;87.64
73817;BME280;62146;53.232;-1.304;2022-10-17T10:56:27;100312.75;;;20.60;87.47
73817;BME280;62146;53.232;-1.304;2022-10-17T11:01:33;100324.59;;;20.72;86.73
73817;BME280;62146;53.232;-1.304;2022-10-17T11:07:17;100314.63;;;20.81;86.07
73817;BME280;62146;53.232;-1.304;2022-10-17T11:10:25;100331.84;;;20.93;86.04
73817;BME280;62146;53.232;-1.304;2022-10-17T11:16:05;100323.56;;;21.12;85.13
73817;BME280;62146;53.232;-1.304;2022-10-17T11:19:03;100323.59;;;21.20;85.47
73817;BME280;62146;53.232;-1.304;2022-10-17T11:22:04;100330.94;;;21.28;85.51
73817;BME280;62146;53.232;-1.304;2022-10-17T11:24:47;100341.72;;;21.28;85.08
73817;BME280;62146;53.232;-1.304;2022-10-17T11:27:15;100336.47;;;21.23;85.09
73817;BME280;62146;53.232;-1.304;2022-10-17T11:29:43;100339.91;;;21.15;84.32
73817;BME280;62146;53.232;-1.304;2022-10-17T11:32:33;100341.28;;;21.04;83.86
73817;BME280;62146;53.232;-1.304;2022-10-17T11:35:29;100356.63;;;20.95;82.79
73817;BME280;62146;53.232;-1.304;2022-10-17T11:40:52;100360.66;;;20.85;82.72
73817;BME280;62146;53.232;-1.304;2022-10-17T11:43:50;100368.25;;;20.83;82.04
73817;BME280;62146;53.232;-1.304;2022-10-17T11:46:22;100371.03;;;20.91;82.41
73817;BME280;62146;53.232;-1.304;2022-10-17T11:49:00;100383.16;;;21.02;82.40
73817;BME280;62146;53.232;-1.304;2022-10-17T11:51:37;100381.00;;;21.12;82.58
73817;BME280;62146;53.232;-1.304;2022-10-17T11:54:44;100375.66;;;21.20;82.00
73817;BME280;62146;53.232;-1.304;2022-10-17T12:07:45;100369.44;;;21.33;80.53
73817;BME280;62146;53.232;-1.304;2022-10-17T12:12:43;100379.31;;;21.46;80.14
73817;BME280;62146;53.232;-1.304;2022-10-17T12:18:01;100370.81;;;21.61;79.97
73817;BME280;62146;53.232;-1.304;2022-10-17T12:20:32;100376.75;;;21.71;79.62
73817;BME280;62146;53.232;-1.304;2022-10-17T12:25:46;100376.00;;;21.87;78.88
73817;BME280;62146;53.232;-1.304;2022-10-17T12:30:57;100388.19;;;22.06;79.17
73817;BME280;62146;53.232;-1.304;2022-10-17T12:47:27;100401.94;;;22.68;78.14
73817;BME280;62146;53.232;-1.304;2022-10-17T12:49:55;100412.00;;;22.76;77.48
73817;BME280;62146;53.232;-1.304;2022-10-17T12:57:48;100410.22;;;23.13;77.02
73817;BME280;62146;53.232;-1.304;2022-10-17T13:02:43;100400.94;;;23.39;76.59
73817;BME280;62146;53.232;-1.304;2022-10-17T13:05:17;100399.97;;;23.52;76.65
73817;BME280;62146;53.232;-1.304;2022-10-17T13:07:46;100408.06;;;23.61;76.16
73817;BME280;62146;53.232;-1.304;2022-10-17T13:10:20;100406.47;;;23.68;75.78
73817;BME280;62146;53.232;-1.304;2022-10-17T13:12:48;100388.75;;;23.70;75.37
73817;BME280;62146;53.232;-1.304;2022-10-17T13:15:17;100401.66;;;23.73;74.98
73817;BME280;62146;53.232;-1.304;2022-10-17T13:17:54;100401.81;;;23.77;74.51
73817;BME280;62146;53.232;-1.304;2022-10-17T13:20:23;100407.19;;;23.85;73.81
73817;BME280;62146;53.232;-1.304;2022-10-17T13:22:56;100408.00;;;23.86;74.27
73817;BME280;62146;53.232;-1.304;2022-10-17T13:25:24;100407.78;;;23.91;73.92
73817;BME280;62146;53.232;-1.304;2022-10-17T13:28:03;100422.13;;;23.91;72.83
73817;BME280;62146;53.232;-1.304;2022-10-17T13:30:34;100429.34;;;23.87;72.60
73817;BME280;62146;53.232;-1.304;2022-10-17T13:33:01;100419.16;;;23.84;72.05
73817;BME280;62146;53.232;-1.304;2022-10-17T13:35:33;100423.75;;;23.84;71.72
73817;BME280;62146;53.232;-1.304;2022-10-17T13:38:27;100424.72;;;23.88;72.12
73817;BME280;62146;53.232;-1.304;2022-10-17T13:40:55;100421.69;;;23.89;72.04
73817;BME280;62146;53.232;-1.304;2022-10-17T13:43:41;100420.41;;;23.87;72.31
73817;BME280;62146;53.232;-1.304;2022-10-17T13:46:18;100418.03;;;23.85;72.03
73817;BME280;62146;53.232;-1.304;2022-10-17T13:49:42;100418.34;;;23.84;72.34
73817;BME280;62146;53.232;-1.304;2022-10-17T13:52:03;100435.13;;;23.77;72.10
73817;BME280;62146;53.232;-1.304;2022-10-17T13:57:02;100446.44;;;23.71;71.95
73817;BME280;62146;53.232;-1.304;2022-10-17T13:59:39;100443.59;;;23.67;71.65
73817;BME280;62146;53.232;-1.304;2022-10-17T14:02:16;100461.63;;;23.64;71.25
73817;BME280;62146;53.232;-1.304;2022-10-17T14:04:44;100466.09;;;23.60;70.42
73817;BME280;62146;53.232;-1.304;2022-10-17T14:07:54;100468.97;;;23.55;71.38
73817;BME280;62146;53.232;-1.304;2022-10-17T14:10:42;100479.66;;;23.51;71.17
73817;BME280;62146;53.232;-1.304;2022-10-17T14:13:36;100478.06;;;23.42;71.50
73817;BME280;62146;53.232;-1.304;2022-10-17T14:16:03;100488.06;;;23.33;71.09
73817;BME280;62146;53.232;-1.304;2022-10-17T14:18:33;100507.03;;;23.25;71.10
73817;BME280;62146;53.232;-1.304;2022-10-17T14:21:02;100503.06;;;23.14;71.44
73817;BME280;62146;53.232;-1.304;2022-10-17T14:23:51;100499.06;;;23.03;71.78
73817;BME280;62146;53.232;-1.304;2022-10-17T14:26:20;100507.69;;;22.97;70.65
73817;BME280;62146;53.232;-1.304;2022-10-17T14:28:50;100507.97;;;22.87;71.83
73817;BME280;62146;53.232;-1.304;2022-10-17T14:31:30;100507.19;;;22.78;71.87
73817;BME280;62146;53.232;-1.304;2022-10-17T14:33:58;100510.13;;;22.68;70.57
73817;BME280;62146;53.232;-1.304;2022-10-17T14:36:39;100526.69;;;22.58;71.62
73817;BME280;62146;53.232;-1.304;2022-10-17T14:39:18;100532.84;;;22.51;71.63
73817;BME280;62146;53.232;-1.304;2022-10-17T14:41:46;100540.13;;;22.42;71.11
73817;BME280;62146;53.232;-1.304;2022-10-17T14:44:28;100553.13;;;22.31;71.50
73817;BME280;62146;53.232;-1.304;2022-10-17T14:46:58;100560.56;;;22.26;70.93
73817;BME280;62146;53.232;-1.304;2022-10-17T14:49:37;100563.56;;;22.16;71.04
73817;BME280;62146;53.232;-1.304;2022-10-17T14:54:55;100597.66;;;22.04;71.60
73817;BME280;62146;53.232;-1.304;2022-10-17T14:59:48;100583.41;;;21.90;70.29
73817;BME280;62146;53.232;-1.304;2022-10-17T15:02:21;100596.22;;;21.85;70.70